Time,TemperatureF,DewpointF,PressureIn,WindDirection,WindDirectionDegrees,WindSpeedMPH,WindSpeedGustMPH,Humidity,HourlyPrecipIn,Conditions,Clouds,dailyrainin,SoftwareType,DateUTC
2013-02-24 00:01:00,42.0,39.0,29.98,ENE,71,0.0,0.0,89,0.00,,,0.00,,2013-02-24 06:01:00,
2013-02-24 00:11:00,42.0,39.0,29.98,ENE,71,0.0,0.0,89,0.00,,,0.00,,2013-02-24 06:11:00,
2013-02-24 00:21:00,41.0,39.0,29.99,ENE,71,0.0,0.0,92,0.00,,,0.00,,2013-02-24 06:21:00,
2013-02-24 00:31:00,41.0,39.0,29.99,ENE,71,0.0,0.0,92,0.00,,,0.00,,2013-02-24 06:31:00,
2013-02-24 00:42:00,41.0,39.0,29.99,ENE,71,0.0,0.0,92,0.00,,,0.00,,2013-02-24 06:42:00,
2013-02-24 00:52:00,41.0,39.0,30.00,ENE,71,0.0,0.0,91,0.00,,,0.00,,2013-02-24 06:52:00,
2013-02-24 01:01:00,40.0,38.0,30.00,ENE,71,0.0,0.0,92,0.00,,,0.00,,2013-02-24 07:01:00,
2013-02-24 01:12:00,40.0,38.0,30.00,ENE,71,0.0,0.0,92,0.00,,,0.00,,2013-02-24 07:12:00,
2013-02-24 01:21:00,40.0,38.0,30.00,ENE,71,0.0,0.0,93,0.00,,,0.00,,2013-02-24 07:21:00,
2013-02-24 01:32:00,40.0,38.0,30.00,ENE,71,0.0,0.0,93,0.00,,,0.00,,2013-02-24 07:32:00,
2013-02-24 01:42:00,40.0,38.0,30.00,ENE,71,0.0,0.0,93,0.00,,,0.00,,2013-02-24 07:42:00,
2013-02-24 01:51:00,40.0,38.0,30.00,ENE,71,0.0,0.0,93,0.00,,,0.00,,2013-02-24 07:51:00,
2013-02-24 02:01:00,40.0,38.0,30.00,ENE,71,0.0,0.0,91,0.00,,,0.00,,2013-02-24 08:01:00,
2013-02-24 02:11:00,40.0,38.0,30.00,ENE,71,0.0,0.0,91,0.00,,,0.00,,2013-02-24 08:11:00,
2013-02-24 02:22:00,40.0,38.0,30.00,ENE,71,0.0,0.0,91,0.00,,,0.00,,2013-02-24 08:22:00,
2013-02-24 02:31:00,40.0,38.0,29.99,ENE,59,0.0,0.0,92,0.00,,,0.00,,2013-02-24 08:31:00,
2013-02-24 02:42:00,40.0,38.0,29.99,ENE,59,0.0,0.0,92,0.00,,,0.00,,2013-02-24 08:42:00,
2013-02-24 02:53:00,40.0,38.0,29.99,NE,53,4.0,6.0,92,0.00,,,0.00,,2013-02-24 08:53:00,
2013-02-24 03:01:00,40.0,37.0,29.99,ENE,58,3.0,6.0,90,0.00,,,0.00,,2013-02-24 09:01:00,
2013-02-24 03:11:00,40.0,37.0,29.99,ENE,58,3.0,6.0,90,0.00,,,0.00,,2013-02-24 09:11:00,
2013-02-24 03:21:00,40.0,37.0,29.99,ENE,59,2.0,4.0,89,0.00,,,0.00,,2013-02-24 09:21:00,
2013-02-24 03:31:00,40.0,37.0,29.98,NE,51,4.0,5.0,89,0.00,,,0.00,,2013-02-24 09:31:00,
2013-02-24 03:42:00,40.0,37.0,29.98,NE,51,4.0,5.0,89,0.00,,,0.00,,2013-02-24 09:42:00,
2013-02-24 03:51:00,40.0,37.0,29.98,ENE,69,3.0,5.0,88,0.00,,,0.00,,2013-02-24 09:51:00,
2013-02-24 04:01:00,39.0,36.0,29.98,ENE,67,4.0,7.0,88,0.00,,,0.00,,2013-02-24 10:01:00,
2013-02-24 04:11:00,39.0,36.0,29.98,ENE,67,4.0,7.0,88,0.00,,,0.00,,2013-02-24 10:11:00,
2013-02-24 04:21:00,39.0,36.0,29.98,ENE,77,2.0,5.0,88,0.00,,,0.00,,2013-02-24 10:21:00,
2013-02-24 04:32:00,39.0,36.0,29.98,ENE,74,4.0,5.0,88,0.00,,,0.00,,2013-02-24 10:32:00,
2013-02-24 04:41:00,39.0,36.0,29.98,ENE,74,4.0,5.0,88,0.00,,,0.00,,2013-02-24 10:41:00,
2013-02-24 04:51:00,38.0,35.0,29.98,ENE,74,1.0,3.0,88,0.00,,,0.00,,2013-02-24 10:51:00,
2013-02-24 05:01:00,38.0,35.0,29.98,ENE,73,2.0,3.0,89,0.00,,,0.00,,2013-02-24 11:01:00,
2013-02-24 05:11:00,38.0,35.0,29.98,ENE,73,2.0,3.0,89,0.00,,,0.00,,2013-02-24 11:11:00,
2013-02-24 05:21:00,38.0,35.0,29.98,ENE,64,2.0,3.0,90,0.00,,,0.00,,2013-02-24 11:21:00,
2013-02-24 05:32:00,38.0,35.0,29.98,NE,55,4.0,6.0,89,0.00,,,0.00,,2013-02-24 11:32:00,
2013-02-24 05:41:00,38.0,35.0,29.98,NE,55,4.0,6.0,89,0.00,,,0.00,,2013-02-24 11:41:00,
2013-02-24 05:52:00,38.0,35.0,29.99,NE,55,4.0,6.0,88,0.00,,,0.00,,2013-02-24 11:52:00,
2013-02-24 06:01:00,39.0,36.0,29.98,NE,46,5.0,7.0,88,0.00,,,0.00,,2013-02-24 12:01:00,
2013-02-24 06:11:00,39.0,36.0,29.98,NE,46,5.0,7.0,88,0.00,,,0.00,,2013-02-24 12:11:00,
2013-02-24 06:22:00,38.0,35.0,29.99,ENE,60,5.0,8.0,88,0.00,,,0.00,,2013-02-24 12:22:00,
2013-02-24 06:32:00,38.0,34.0,29.99,NE,47,4.0,7.0,87,0.00,,,0.00,,2013-02-24 12:32:00,
2013-02-24 06:46:00,38.0,34.0,29.99,NE,47,4.0,7.0,87,0.00,,,0.00,,2013-02-24 12:46:00,
2013-02-24 06:55:00,38.0,34.0,29.99,NE,39,4.0,7.0,87,0.00,,,0.00,,2013-02-24 12:55:00,
2013-02-24 07:17:00,38.0,34.0,30.00,ENE,57,5.0,8.0,87,0.00,,,0.00,,2013-02-24 13:17:00,
2013-02-24 07:26:00,38.0,34.0,30.00,NE,42,5.0,7.0,87,0.00,,,0.00,,2013-02-24 13:26:00,
2013-02-24 07:33:00,38.0,34.0,30.00,NE,39,6.0,8.0,86,0.00,,,0.00,,2013-02-24 13:33:00,
2013-02-24 07:44:00,38.0,34.0,30.00,NE,39,6.0,8.0,86,0.00,,,0.00,,2013-02-24 13:44:00,
2013-02-24 07:53:00,39.0,35.0,30.00,NE,42,7.0,9.0,86,0.00,,,0.00,,2013-02-24 13:53:00,
2013-02-24 08:04:00,39.0,35.0,30.01,ENE,60,6.0,10.0,85,0.00,,,0.00,,2013-02-24 14:04:00,
2013-02-24 08:13:00,39.0,35.0,30.01,ENE,60,6.0,10.0,85,0.00,,,0.00,,2013-02-24 14:13:00,
2013-02-24 08:24:00,40.0,36.0,30.02,NE,42,5.0,9.0,85,0.00,,,0.00,,2013-02-24 14:24:00,
2013-02-24 08:34:00,42.0,37.0,30.03,NE,55,6.0,9.0,83,0.00,,,0.00,,2013-02-24 14:34:00,
2013-02-24 08:44:00,42.0,37.0,30.03,NE,55,6.0,9.0,83,0.00,,,0.00,,2013-02-24 14:44:00,
2013-02-24 08:53:00,43.0,37.0,30.04,ENE,68,9.0,11.0,80,0.00,,,0.00,,2013-02-24 14:53:00,
2013-02-24 09:03:00,43.0,37.0,30.05,NE,54,7.0,11.0,80,0.00,,,0.00,,2013-02-24 15:03:00,
2013-02-24 09:13:00,43.0,37.0,30.05,NE,54,7.0,11.0,80,0.00,,,0.00,,2013-02-24 15:13:00,
2013-02-24 09:23:00,44.0,38.0,30.05,ENE,75,8.0,10.0,78,0.00,,,0.00,,2013-02-24 15:23:00,
2013-02-24 09:32:00,45.0,38.0,30.05,ENE,64,8.0,11.0,77,0.00,,,0.00,,2013-02-24 15:32:00,
2013-02-24 09:42:00,45.0,38.0,30.05,ENE,64,8.0,11.0,77,0.00,,,0.00,,2013-02-24 15:42:00,
2013-02-24 09:52:00,46.0,40.0,30.04,East,80,7.0,12.0,78,0.00,,,0.00,,2013-02-24 15:52:00,
2013-02-24 10:01:00,47.0,39.0,30.04,ESE,116,5.0,10.0,75,0.00,,,0.00,,2013-02-24 16:01:00,
2013-02-24 10:11:00,47.0,39.0,30.04,ESE,116,5.0,10.0,75,0.00,,,0.00,,2013-02-24 16:11:00,
2013-02-24 10:21:00,49.0,39.0,30.03,East,84,8.0,11.0,69,0.00,,,0.00,,2013-02-24 16:21:00,
2013-02-24 10:32:00,49.0,40.0,30.03,ENE,71,6.0,10.0,71,0.00,,,0.00,,2013-02-24 16:32:00,
2013-02-24 10:42:00,49.0,40.0,30.03,ENE,71,6.0,10.0,71,0.00,,,0.00,,2013-02-24 16:42:00,
2013-02-24 10:52:00,50.0,41.0,30.03,ENE,59,3.0,8.0,71,0.00,,,0.00,,2013-02-24 16:52:00,
2013-02-24 11:01:00,51.0,41.0,30.03,East,85,4.0,7.0,69,0.00,,,0.00,,2013-02-24 17:01:00,
2013-02-24 11:11:00,51.0,41.0,30.03,East,85,4.0,7.0,69,0.00,,,0.00,,2013-02-24 17:11:00,
2013-02-24 11:21:00,52.0,41.0,30.02,ENE,78,4.0,10.0,67,0.00,,,0.00,,2013-02-24 17:21:00,
2013-02-24 11:32:00,54.0,43.0,30.02,ENE,75,7.0,11.0,65,0.00,,,0.00,,2013-02-24 17:32:00,
2013-02-24 11:42:00,54.0,43.0,30.02,ENE,75,7.0,11.0,65,0.00,,,0.00,,2013-02-24 17:42:00,
2013-02-24 11:52:00,55.0,42.0,30.01,NE,46,6.0,13.0,62,0.00,,,0.00,,2013-02-24 17:52:00,
2013-02-24 12:01:00,56.0,42.0,30.01,ENE,78,7.0,11.0,59,0.00,,,0.00,,2013-02-24 18:01:00,
2013-02-24 12:11:00,56.0,42.0,30.01,ENE,78,7.0,11.0,59,0.00,,,0.00,,2013-02-24 18:11:00,
2013-02-24 12:22:00,56.0,41.0,29.99,East,84,5.0,11.0,56,0.00,,,0.00,,2013-02-24 18:22:00,
2013-02-24 12:32:00,57.0,42.0,29.98,ENE,67,7.0,13.0,58,0.00,,,0.00,,2013-02-24 18:32:00,
2013-02-24 12:42:00,57.0,42.0,29.98,ENE,67,7.0,13.0,58,0.00,,,0.00,,2013-02-24 18:42:00,
2013-02-24 12:51:00,58.0,42.0,29.97,ENE,72,6.0,12.0,56,0.00,,,0.00,,2013-02-24 18:51:00,
2013-02-24 13:01:00,58.0,42.0,29.96,ENE,71,9.0,14.0,55,0.00,,,0.00,,2013-02-24 19:01:00,
2013-02-24 13:11:00,58.0,42.0,29.96,ENE,71,9.0,14.0,55,0.00,,,0.00,,2013-02-24 19:11:00,
2013-02-24 13:22:00,59.0,41.0,29.96,ENE,78,6.0,13.0,52,0.00,,,0.00,,2013-02-24 19:22:00,
2013-02-24 13:32:00,60.0,41.0,29.94,ENE,73,10.0,14.0,50,0.00,,,0.00,,2013-02-24 19:32:00,
2013-02-24 13:42:00,60.0,41.0,29.94,ENE,73,10.0,14.0,50,0.00,,,0.00,,2013-02-24 19:42:00,
2013-02-24 13:51:00,60.0,42.0,29.93,NE,46,7.0,14.0,51,0.00,,,0.00,,2013-02-24 19:51:00,
2013-02-24 14:02:00,60.0,41.0,29.93,ENE,71,6.0,11.0,50,0.00,,,0.00,,2013-02-24 20:02:00,
2013-02-24 14:11:00,60.0,41.0,29.93,ENE,71,6.0,11.0,50,0.00,,,0.00,,2013-02-24 20:11:00,
2013-02-24 14:21:00,61.0,43.0,29.93,NE,45,5.0,10.0,52,0.00,,,0.00,,2013-02-24 20:21:00,
2013-02-24 14:32:00,61.0,42.0,29.92,NE,49,4.0,10.0,50,0.00,,,0.00,,2013-02-24 20:32:00,
2013-02-24 14:42:00,61.0,42.0,29.92,NE,49,4.0,10.0,50,0.00,,,0.00,,2013-02-24 20:42:00,
2013-02-24 14:52:00,62.0,43.0,29.92,NE,34,7.0,10.0,49,0.00,,,0.00,,2013-02-24 20:52:00,
2013-02-24 15:01:00,62.0,42.0,29.91,East,79,5.0,11.0,48,0.00,,,0.00,,2013-02-24 21:01:00,
2013-02-24 15:11:00,62.0,42.0,29.91,East,79,5.0,11.0,48,0.00,,,0.00,,2013-02-24 21:11:00,
2013-02-24 15:21:00,62.0,42.0,29.91,ENE,64,8.0,12.0,47,0.00,,,0.00,,2013-02-24 21:21:00,
2013-02-24 15:32:00,63.0,44.0,29.90,ENE,72,7.0,12.0,49,0.00,,,0.00,,2013-02-24 21:32:00,
2013-02-24 15:42:00,63.0,44.0,29.90,ENE,72,7.0,12.0,49,0.00,,,0.00,,2013-02-24 21:42:00,
2013-02-24 15:52:00,63.0,42.0,29.89,NNE,33,7.0,11.0,47,0.00,,,0.00,,2013-02-24 21:52:00,
2013-02-24 16:01:00,63.0,42.0,29.88,NE,55,6.0,10.0,47,0.00,,,0.00,,2013-02-24 22:01:00,
2013-02-24 16:11:00,63.0,42.0,29.88,NE,55,6.0,10.0,47,0.00,,,0.00,,2013-02-24 22:11:00,
2013-02-24 16:21:00,63.0,42.0,29.88,NE,40,8.0,12.0,47,0.00,,,0.00,,2013-02-24 22:21:00,
2013-02-24 16:31:00,63.0,44.0,29.87,NNE,30,6.0,10.0,50,0.00,,,0.00,,2013-02-24 22:31:00,
2013-02-24 16:41:00,63.0,44.0,29.87,NNE,30,6.0,10.0,50,0.00,,,0.00,,2013-02-24 22:41:00,
2013-02-24 16:51:00,63.0,44.0,29.86,NE,44,8.0,12.0,49,0.00,,,0.00,,2013-02-24 22:51:00,
2013-02-24 17:02:00,62.0,43.0,29.86,NE,48,8.0,11.0,50,0.00,,,0.00,,2013-02-24 23:02:00,
2013-02-24 17:11:00,62.0,43.0,29.86,NE,48,8.0,11.0,50,0.00,,,0.00,,2013-02-24 23:11:00,
2013-02-24 17:21:00,62.0,45.0,29.86,NNE,26,8.0,12.0,53,0.00,,,0.00,,2013-02-24 23:21:00,
2013-02-24 17:31:00,61.0,44.0,29.86,NE,49,9.0,12.0,53,0.00,,,0.00,,2013-02-24 23:31:00,
2013-02-24 17:42:00,61.0,44.0,29.86,NE,49,9.0,12.0,53,0.00,,,0.00,,2013-02-24 23:42:00,
2013-02-24 17:52:00,60.0,45.0,29.86,NE,34,6.0,12.0,58,0.00,,,0.00,,2013-02-24 23:52:00,
2013-02-24 18:01:00,60.0,45.0,29.86,NE,36,7.0,9.0,58,0.00,,,0.00,,2013-02-25 00:01:00,
2013-02-24 18:11:00,60.0,45.0,29.86,NE,36,7.0,9.0,58,0.00,,,0.00,,2013-02-25 00:11:00,
2013-02-24 18:21:00,59.0,46.0,29.86,NE,51,7.0,10.0,61,0.00,,,0.00,,2013-02-25 00:21:00,
2013-02-24 18:32:00,58.0,45.0,29.85,NE,44,8.0,13.0,61,0.00,,,0.00,,2013-02-25 00:32:00,
2013-02-24 18:42:00,58.0,45.0,29.85,NE,44,8.0,13.0,61,0.00,,,0.00,,2013-02-25 00:42:00,
2013-02-24 18:51:00,58.0,45.0,29.85,NE,42,6.0,12.0,62,0.00,,,0.00,,2013-02-25 00:51:00,
2013-02-24 19:01:00,58.0,45.0,29.85,NE,42,6.0,12.0,62,0.00,,,0.00,,2013-02-25 01:01:00,
2013-02-24 19:11:00,58.0,45.0,29.85,NE,42,6.0,12.0,62,0.00,,,0.00,,2013-02-25 01:11:00,
2013-02-24 19:21:00,57.0,45.0,29.83,NE,42,10.0,13.0,65,0.00,,,0.00,,2013-02-25 01:21:00,
2013-02-24 19:32:00,57.0,45.0,29.83,NE,42,10.0,13.0,65,0.00,,,0.00,,2013-02-25 01:32:00,
2013-02-24 19:42:00,57.0,45.0,29.83,NE,42,10.0,13.0,65,0.00,,,0.00,,2013-02-25 01:42:00,
2013-02-24 19:51:00,56.0,44.0,29.84,NE,38,9.0,14.0,65,0.00,,,0.00,,2013-02-25 01:51:00,
2013-02-24 20:01:00,55.0,43.0,29.84,ENE,62,8.0,13.0,65,0.00,,,0.00,,2013-02-25 02:01:00,
2013-02-24 20:11:00,55.0,43.0,29.84,ENE,62,8.0,13.0,65,0.00,,,0.00,,2013-02-25 02:11:00,
2013-02-24 20:21:00,55.0,44.0,29.83,NE,53,9.0,11.0,66,0.00,,,0.00,,2013-02-25 02:21:00,
2013-02-24 20:32:00,55.0,44.0,29.83,NE,53,9.0,11.0,66,0.00,,,0.00,,2013-02-25 02:32:00,
2013-02-24 20:41:00,55.0,44.0,29.83,NE,53,9.0,11.0,66,0.00,,,0.00,,2013-02-25 02:41:00,
2013-02-24 20:52:00,54.0,43.0,29.81,NE,47,10.0,13.0,67,0.00,,,0.00,,2013-02-25 02:52:00,
2013-02-24 21:01:00,54.0,43.0,29.80,NE,56,8.0,12.0,67,0.00,,,0.00,,2013-02-25 03:01:00,
2013-02-24 21:11:00,54.0,43.0,29.80,NE,56,8.0,12.0,67,0.00,,,0.00,,2013-02-25 03:11:00,
2013-02-24 21:21:00,54.0,44.0,29.81,ENE,70,6.0,10.0,68,0.00,,,0.00,,2013-02-25 03:21:00,
2013-02-24 21:31:00,54.0,44.0,29.81,ENE,70,6.0,10.0,68,0.00,,,0.00,,2013-02-25 03:31:00,
2013-02-24 21:42:00,54.0,44.0,29.81,ENE,70,6.0,10.0,68,0.00,,,0.00,,2013-02-25 03:42:00,
2013-02-24 21:51:00,53.0,43.0,29.83,ENE,60,6.0,7.0,69,0.00,,,0.00,,2013-02-25 03:51:00,
2013-02-24 22:01:00,53.0,43.0,29.83,ENE,61,8.0,11.0,70,0.00,,,0.00,,2013-02-25 04:01:00,
2013-02-24 22:11:00,53.0,43.0,29.83,ENE,61,8.0,11.0,70,0.00,,,0.00,,2013-02-25 04:11:00,
2013-02-24 22:21:00,53.0,43.0,29.82,ENE,67,8.0,9.0,70,0.00,,,0.00,,2013-02-25 04:21:00,
2013-02-24 22:31:00,53.0,44.0,29.81,ENE,78,7.0,9.0,71,0.00,,,0.00,,2013-02-25 04:31:00,
2013-02-24 22:42:00,53.0,44.0,29.81,ENE,78,7.0,9.0,71,0.00,,,0.00,,2013-02-25 04:42:00,
2013-02-24 22:52:00,53.0,43.0,29.81,ENE,74,5.0,8.0,70,0.00,,,0.00,,2013-02-25 04:52:00,
2013-02-24 23:01:00,53.0,43.0,29.81,ENE,78,6.0,9.0,70,0.00,,,0.00,,2013-02-25 05:01:00,
2013-02-24 23:11:00,53.0,43.0,29.81,ENE,78,6.0,9.0,70,0.00,,,0.00,,2013-02-25 05:11:00,
2013-02-24 23:22:00,53.0,43.0,29.79,ENE,74,7.0,10.0,70,0.00,,,0.00,,2013-02-25 05:22:00,
2013-02-24 23:32:00,54.0,44.0,29.77,ENE,76,7.0,10.0,69,0.00,,,0.00,,2013-02-25 05:32:00,
2013-02-24 23:42:00,54.0,44.0,29.77,ENE,76,7.0,10.0,69,0.00,,,0.00,,2013-02-25 05:42:00,
2013-02-24 23:52:00,54.0,44.0,29.75,ENE,70,7.0,10.0,68,0.00,,,0.00,,2013-02-25 05:52:00,